• Join FlightAware (Why Join?)
  • Login
  • US Flag 
07:37PM EDT


 

Airport Tracker/Info


-or-


 

Live Flight TrackerFlight Track Log ✈ EJA922 ✈ 18-Jul-2013 ✈ KTPA - KMCO

Flight Track Log - Related Links

Times and Time Zones

All times are in EDT time to prevent confusion due to time zone crossing. See the EJA922 flight status page for this flight to view local times or setup timezone preferences in your user account.

Time Position Orientation Groundspeed Altitude Reporting Facility
EDT Latitude Longitude Course Direction KTS MPH feet Rate Location/Type
09:34PM 27.9333 -82.5500 204° Southwest 188 216 3,600  Level Tampa TRACON
09:35PM 27.8667 -82.5667 192° South 256 295 8,300 3,720 Climbing Tampa TRACON
09:36PM 27.8667 -82.4667 90° East 340 391 11,100 1,320 Climbing Tampa TRACON
09:37PM 27.9000 -82.3500 72° East 405 466 11,000 -60 Descending Tampa TRACON
09:39PM 27.9667 -82.1000 73° East 393 452 11,000  Level Orlando TRACON
09:40PM 28.0000 -81.9833 72° East 407 468 11,000  Level Orlando TRACON
09:41PM 28.0667 -81.8500 60° Northeast 409 471 11,000  Level Orlando TRACON
09:42PM 28.1167 -81.7500 60° Northeast 397 457 11,000 -480 Level Orlando TRACON
09:43PM 28.1667 -81.6667 56° Northeast 303 349 10,100 -1,080 Descending Orlando TRACON
09:44PM 28.2167 -81.6000 50° Northeast 279 321 9,000 -660 Descending Orlando TRACON
09:45PM 28.2500 -81.5333 60° Northeast 283 326 9,000  Level Orlando TRACON
09:47PM 28.3333 -81.4333 47° Northeast 288 331 9,000  Level Orlando TRACON
09:47PM 28.3667 -81.4333 360° North 292 336 9,000 -1,320 Level Orlando TRACON
09:49PM 28.4833 -81.4333 360° North 293 337 6,500 -1,800 Descending Orlando TRACON
09:50PM 28.5667 -81.4333 360° North 280 322 4,700 -1,860 Descending Orlando TRACON
09:50PM 28.6167 -81.4000 30° Northeast 263 303 3,200 -1,020 Descending Orlando TRACON
09:51PM 28.5833 -81.3333 120° Southeast 234 269 2,900 -540 Descending Orlando TRACON
09:52PM 28.5167 -81.3333 180° South 231 266 2,200 -1,020 Descending Orlando TRACON
09:53PM 28.4833 -81.3333 180° South 123 142 1,100 -1,380 Descending Orlando TRACON
09:55PM 28.4294 -81.3090 170° South  Level Estimated
10:02PM 28.4294 -81.3090 170° South  Level Estimated
10:03PM 28.4294 -81.3090 170° South  Level Estimated
10:04PM 28.4294 -81.3090 170° South  Level Estimated